sensor_id;sensor_type;location;lat;lon;timestamp;P1;durP1;ratioP1;P2;durP2;ratioP2
15553;SDS011;7878;44.632;10.942;2023-07-13T00:02:02;13.95;;;7.45;;
15553;SDS011;7878;44.632;10.942;2023-07-13T00:04:28;19.73;;;8.38;;
15553;SDS011;7878;44.632;10.942;2023-07-13T00:06:53;16.05;;;7.88;;
15553;SDS011;7878;44.632;10.942;2023-07-13T00:09:19;16.27;;;7.80;;
15553;SDS011;7878;44.632;10.942;2023-07-13T00:11:49;19.08;;;8.02;;
15553;SDS011;7878;44.632;10.942;2023-07-13T00:14:16;17.90;;;8.20;;
15553;SDS011;7878;44.632;10.942;2023-07-13T00:16:42;17.92;;;8.00;;
15553;SDS011;7878;44.632;10.942;2023-07-13T00:19:10;18.33;;;8.13;;
15553;SDS011;7878;44.632;10.942;2023-07-13T00:21:36;18.27;;;7.93;;
15553;SDS011;7878;44.632;10.942;2023-07-13T00:24:03;17.42;;;8.27;;
15553;SDS011;7878;44.632;10.942;2023-07-13T00:26:29;14.48;;;7.80;;
15553;SDS011;7878;44.632;10.942;2023-07-13T00:28:56;17.75;;;8.55;;
15553;SDS011;7878;44.632;10.942;2023-07-13T00:31:21;18.33;;;8.30;;
15553;SDS011;7878;44.632;10.942;2023-07-13T00:33:47;17.52;;;7.63;;
15553;SDS011;7878;44.632;10.942;2023-07-13T00:36:12;16.30;;;8.00;;
15553;SDS011;7878;44.632;10.942;2023-07-13T00:38:39;15.40;;;7.45;;
15553;SDS011;7878;44.632;10.942;2023-07-13T00:41:05;9.98;;;7.03;;
15553;SDS011;7878;44.632;10.942;2023-07-13T00:43:31;15.60;;;7.32;;
15553;SDS011;7878;44.632;10.942;2023-07-13T00:48:49;15.85;;;8.00;;
15553;SDS011;7878;44.632;10.942;2023-07-13T00:51:17;16.05;;;8.05;;
15553;SDS011;7878;44.632;10.942;2023-07-13T00:53:47;20.55;;;7.82;;
15553;SDS011;7878;44.632;10.942;2023-07-13T00:56:13;18.27;;;8.60;;
15553;SDS011;7878;44.632;10.942;2023-07-13T00:58:39;25.65;;;8.75;;
15553;SDS011;7878;44.632;10.942;2023-07-13T01:01:05;16.80;;;8.60;;
15553;SDS011;7878;44.632;10.942;2023-07-13T01:03:31;17.25;;;8.60;;
15553;SDS011;7878;44.632;10.942;2023-07-13T01:05:57;25.55;;;8.43;;
15553;SDS011;7878;44.632;10.942;2023-07-13T01:08:23;18.45;;;8.93;;
15553;SDS011;7878;44.632;10.942;2023-07-13T01:10:55;14.27;;;9.20;;
15553;SDS011;7878;44.632;10.942;2023-07-13T01:13:24;19.55;;;8.68;;
15553;SDS011;7878;44.632;10.942;2023-07-13T01:15:50;15.20;;;8.35;;
15553;SDS011;7878;44.632;10.942;2023-07-13T01:18:20;20.35;;;8.50;;
15553;SDS011;7878;44.632;10.942;2023-07-13T01:21:07;14.18;;;7.38;;
15553;SDS011;7878;44.632;10.942;2023-07-13T01:23:33;20.00;;;8.10;;
15553;SDS011;7878;44.632;10.942;2023-07-13T01:25:59;16.67;;;7.95;;
15553;SDS011;7878;44.632;10.942;2023-07-13T01:28:25;17.67;;;8.63;;
15553;SDS011;7878;44.632;10.942;2023-07-13T01:30:53;17.35;;;8.07;;
15553;SDS011;7878;44.632;10.942;2023-07-13T01:33:19;22.23;;;8.15;;
15553;SDS011;7878;44.632;10.942;2023-07-13T01:35:45;15.70;;;7.50;;
15553;SDS011;7878;44.632;10.942;2023-07-13T01:38:13;16.35;;;7.40;;
15553;SDS011;7878;44.632;10.942;2023-07-13T01:40:40;16.60;;;6.72;;
15553;SDS011;7878;44.632;10.942;2023-07-13T01:43:05;17.13;;;7.30;;
15553;SDS011;7878;44.632;10.942;2023-07-13T01:45:31;15.50;;;5.97;;
15553;SDS011;7878;44.632;10.942;2023-07-13T01:47:57;19.65;;;7.10;;
15553;SDS011;7878;44.632;10.942;2023-07-13T01:50:23;15.27;;;5.97;;
15553;SDS011;7878;44.632;10.942;2023-07-13T01:52:50;10.05;;;5.18;;
15553;SDS011;7878;44.632;10.942;2023-07-13T01:55:15;18.25;;;6.10;;
15553;SDS011;7878;44.632;10.942;2023-07-13T01:57:41;16.67;;;5.03;;
15553;SDS011;7878;44.632;10.942;2023-07-13T02:00:08;12.30;;;5.18;;
15553;SDS011;7878;44.632;10.942;2023-07-13T02:02:35;12.82;;;5.35;;
15553;SDS011;7878;44.632;10.942;2023-07-13T02:05:01;10.20;;;4.57;;
15553;SDS011;7878;44.632;10.942;2023-07-13T02:07:26;12.32;;;4.47;;
15553;SDS011;7878;44.632;10.942;2023-07-13T02:09:52;16.75;;;4.28;;
15553;SDS011;7878;44.632;10.942;2023-07-13T02:12:18;13.40;;;4.60;;
15553;SDS011;7878;44.632;10.942;2023-07-13T02:14:44;11.98;;;4.20;;
15553;SDS011;7878;44.632;10.942;2023-07-13T02:17:10;17.15;;;4.07;;
15553;SDS011;7878;44.632;10.942;2023-07-13T02:19:36;13.30;;;3.65;;
15553;SDS011;7878;44.632;10.942;2023-07-13T02:22:02;16.52;;;3.92;;
15553;SDS011;7878;44.632;10.942;2023-07-13T02:24:28;10.98;;;3.67;;
15553;SDS011;7878;44.632;10.942;2023-07-13T02:26:53;9.90;;;3.35;;
15553;SDS011;7878;44.632;10.942;2023-07-13T02:29:19;10.15;;;3.88;;
15553;SDS011;7878;44.632;10.942;2023-07-13T02:31:45;12.93;;;3.78;;
15553;SDS011;7878;44.632;10.942;2023-07-13T02:34:10;12.55;;;3.70;;
15553;SDS011;7878;44.632;10.942;2023-07-13T02:36:36;21.42;;;5.28;;
15553;SDS011;7878;44.632;10.942;2023-07-13T02:39:02;13.73;;;3.72;;
15553;SDS011;7878;44.632;10.942;2023-07-13T02:41:30;9.25;;;3.60;;
15553;SDS011;7878;44.632;10.942;2023-07-13T02:43:57;8.20;;;2.95;;
15553;SDS011;7878;44.632;10.942;2023-07-13T02:46:32;20.20;;;3.75;;
15553;SDS011;7878;44.632;10.942;2023-07-13T02:48:59;8.48;;;3.78;;
15553;SDS011;7878;44.632;10.942;2023-07-13T02:51:25;21.35;;;4.75;;
15553;SDS011;7878;44.632;10.942;2023-07-13T02:53:51;9.18;;;3.67;;
15553;SDS011;7878;44.632;10.942;2023-07-13T02:56:17;5.80;;;3.53;;
15553;SDS011;7878;44.632;10.942;2023-07-13T02:58:49;10.95;;;3.85;;
15553;SDS011;7878;44.632;10.942;2023-07-13T03:01:15;5.70;;;3.45;;
15553;SDS011;7878;44.632;10.942;2023-07-13T03:03:43;15.55;;;4.00;;
15553;SDS011;7878;44.632;10.942;2023-07-13T03:06:10;9.55;;;3.83;;
15553;SDS011;7878;44.632;10.942;2023-07-13T03:08:37;16.48;;;4.15;;
15553;SDS011;7878;44.632;10.942;2023-07-13T03:11:03;18.02;;;4.43;;
15553;SDS011;7878;44.632;10.942;2023-07-13T03:13:31;10.93;;;4.47;;
15553;SDS011;7878;44.632;10.942;2023-07-13T03:15:57;16.60;;;4.15;;
15553;SDS011;7878;44.632;10.942;2023-07-13T03:18:22;12.40;;;3.97;;
15553;SDS011;7878;44.632;10.942;2023-07-13T03:20:51;13.52;;;4.10;;
15553;SDS011;7878;44.632;10.942;2023-07-13T03:23:17;6.85;;;3.90;;
15553;SDS011;7878;44.632;10.942;2023-07-13T03:25:44;9.00;;;3.97;;
15553;SDS011;7878;44.632;10.942;2023-07-13T03:28:10;16.17;;;4.45;;
15553;SDS011;7878;44.632;10.942;2023-07-13T03:30:39;16.70;;;4.57;;
15553;SDS011;7878;44.632;10.942;2023-07-13T03:33:06;9.50;;;4.43;;
15553;SDS011;7878;44.632;10.942;2023-07-13T03:35:31;12.32;;;4.47;;
15553;SDS011;7878;44.632;10.942;2023-07-13T03:37:58;8.27;;;4.20;;
15553;SDS011;7878;44.632;10.942;2023-07-13T03:40:24;14.60;;;4.55;;
15553;SDS011;7878;44.632;10.942;2023-07-13T03:42:51;10.38;;;4.30;;
15553;SDS011;7878;44.632;10.942;2023-07-13T03:45:17;14.90;;;4.88;;
15553;SDS011;7878;44.632;10.942;2023-07-13T03:47:43;10.52;;;4.85;;
15553;SDS011;7878;44.632;10.942;2023-07-13T03:50:10;10.35;;;5.00;;
15553;SDS011;7878;44.632;10.942;2023-07-13T03:52:35;11.48;;;5.07;;
15553;SDS011;7878;44.632;10.942;2023-07-13T03:55:01;16.90;;;4.60;;
15553;SDS011;7878;44.632;10.942;2023-07-13T03:57:27;16.30;;;4.47;;
15553;SDS011;7878;44.632;10.942;2023-07-13T03:59:52;17.65;;;5.43;;
15553;SDS011;7878;44.632;10.942;2023-07-13T04:02:18;25.05;;;5.57;;
15553;SDS011;7878;44.632;10.942;2023-07-13T04:04:44;9.85;;;4.97;;
15553;SDS011;7878;44.632;10.942;2023-07-13T04:07:10;9.55;;;4.95;;
15553;SDS011;7878;44.632;10.942;2023-07-13T04:09:35;14.85;;;4.97;;
15553;SDS011;7878;44.632;10.942;2023-07-13T04:12:01;15.95;;;5.07;;
15553;SDS011;7878;44.632;10.942;2023-07-13T04:14:27;13.32;;;4.68;;
15553;SDS011;7878;44.632;10.942;2023-07-13T04:16:53;13.73;;;5.45;;
15553;SDS011;7878;44.632;10.942;2023-07-13T04:19:19;21.00;;;5.28;;
15553;SDS011;7878;44.632;10.942;2023-07-13T04:21:46;19.13;;;5.10;;
15553;SDS011;7878;44.632;10.942;2023-07-13T04:24:11;9.02;;;5.35;;
15553;SDS011;7878;44.632;10.942;2023-07-13T04:26:37;14.98;;;5.95;;
15553;SDS011;7878;44.632;10.942;2023-07-13T04:29:03;20.33;;;5.78;;
15553;SDS011;7878;44.632;10.942;2023-07-13T04:31:30;20.83;;;5.43;;
15553;SDS011;7878;44.632;10.942;2023-07-13T04:33:56;12.48;;;5.85;;
15553;SDS011;7878;44.632;10.942;2023-07-13T04:36:22;18.45;;;5.20;;
15553;SDS011;7878;44.632;10.942;2023-07-13T04:38:52;12.10;;;5.22;;
15553;SDS011;7878;44.632;10.942;2023-07-13T04:41:18;13.98;;;5.15;;
15553;SDS011;7878;44.632;10.942;2023-07-13T04:43:46;10.20;;;5.20;;
15553;SDS011;7878;44.632;10.942;2023-07-13T04:46:12;16.88;;;5.65;;
15553;SDS011;7878;44.632;10.942;2023-07-13T04:48:43;15.93;;;4.55;;
15553;SDS011;7878;44.632;10.942;2023-07-13T04:51:09;18.60;;;6.03;;
15553;SDS011;7878;44.632;10.942;2023-07-13T04:53:35;18.98;;;5.10;;
15553;SDS011;7878;44.632;10.942;2023-07-13T04:56:01;16.77;;;5.07;;
15553;SDS011;7878;44.632;10.942;2023-07-13T04:58:27;12.38;;;4.60;;
15553;SDS011;7878;44.632;10.942;2023-07-13T05:00:53;14.68;;;4.13;;
15553;SDS011;7878;44.632;10.942;2023-07-13T05:03:25;11.45;;;4.13;;
15553;SDS011;7878;44.632;10.942;2023-07-13T05:06:01;11.98;;;3.90;;
15553;SDS011;7878;44.632;10.942;2023-07-13T05:08:29;12.13;;;3.90;;
15553;SDS011;7878;44.632;10.942;2023-07-13T05:10:54;13.48;;;3.60;;
15553;SDS011;7878;44.632;10.942;2023-07-13T05:13:20;13.25;;;3.42;;
15553;SDS011;7878;44.632;10.942;2023-07-13T05:15:48;8.02;;;3.15;;
15553;SDS011;7878;44.632;10.942;2023-07-13T05:18:21;17.60;;;3.58;;
15553;SDS011;7878;44.632;10.942;2023-07-13T05:20:54;11.98;;;3.45;;
15553;SDS011;7878;44.632;10.942;2023-07-13T05:23:22;15.00;;;4.22;;
15553;SDS011;7878;44.632;10.942;2023-07-13T05:25:48;19.42;;;3.53;;
15553;SDS011;7878;44.632;10.942;2023-07-13T05:28:13;12.10;;;3.40;;
15553;SDS011;7878;44.632;10.942;2023-07-13T05:30:39;7.65;;;2.72;;
15553;SDS011;7878;44.632;10.942;2023-07-13T05:33:04;14.45;;;2.70;;
15553;SDS011;7878;44.632;10.942;2023-07-13T05:35:30;8.48;;;2.55;;
15553;SDS011;7878;44.632;10.942;2023-07-13T05:37:56;11.05;;;2.72;;
15553;SDS011;7878;44.632;10.942;2023-07-13T05:40:21;13.32;;;2.58;;
15553;SDS011;7878;44.632;10.942;2023-07-13T05:42:47;11.05;;;2.63;;
15553;SDS011;7878;44.632;10.942;2023-07-13T05:45:12;6.22;;;2.10;;
15553;SDS011;7878;44.632;10.942;2023-07-13T05:47:38;19.10;;;2.90;;
15553;SDS011;7878;44.632;10.942;2023-07-13T05:50:04;9.30;;;2.35;;
15553;SDS011;7878;44.632;10.942;2023-07-13T05:52:30;9.98;;;2.53;;
15553;SDS011;7878;44.632;10.942;2023-07-13T05:54:56;8.32;;;2.95;;
15553;SDS011;7878;44.632;10.942;2023-07-13T05:57:21;14.23;;;2.90;;
15553;SDS011;7878;44.632;10.942;2023-07-13T05:59:47;9.38;;;2.03;;
15553;SDS011;7878;44.632;10.942;2023-07-13T06:02:13;7.07;;;2.22;;
15553;SDS011;7878;44.632;10.942;2023-07-13T06:04:39;5.43;;;2.35;;
15553;SDS011;7878;44.632;10.942;2023-07-13T06:07:04;7.38;;;2.25;;
15553;SDS011;7878;44.632;10.942;2023-07-13T06:09:30;5.57;;;2.13;;
15553;SDS011;7878;44.632;10.942;2023-07-13T06:11:56;9.05;;;2.25;;
15553;SDS011;7878;44.632;10.942;2023-07-13T06:14:22;10.07;;;2.53;;
15553;SDS011;7878;44.632;10.942;2023-07-13T06:16:47;11.18;;;2.55;;
15553;SDS011;7878;44.632;10.942;2023-07-13T06:19:13;12.38;;;2.03;;
15553;SDS011;7878;44.632;10.942;2023-07-13T06:21:39;16.83;;;2.50;;
15553;SDS011;7878;44.632;10.942;2023-07-13T06:24:04;7.20;;;2.30;;
15553;SDS011;7878;44.632;10.942;2023-07-13T06:26:30;15.15;;;2.42;;
15553;SDS011;7878;44.632;10.942;2023-07-13T06:28:57;15.07;;;2.83;;
15553;SDS011;7878;44.632;10.942;2023-07-13T06:31:22;8.43;;;2.33;;
15553;SDS011;7878;44.632;10.942;2023-07-13T06:33:48;12.13;;;2.47;;
15553;SDS011;7878;44.632;10.942;2023-07-13T06:36:14;14.25;;;2.70;;
15553;SDS011;7878;44.632;10.942;2023-07-13T06:38:40;13.75;;;2.85;;
15553;SDS011;7878;44.632;10.942;2023-07-13T06:41:06;16.58;;;2.65;;
15553;SDS011;7878;44.632;10.942;2023-07-13T06:43:32;7.75;;;2.25;;
15553;SDS011;7878;44.632;10.942;2023-07-13T06:45:58;9.57;;;2.95;;
15553;SDS011;7878;44.632;10.942;2023-07-13T06:48:24;8.27;;;2.25;;
15553;SDS011;7878;44.632;10.942;2023-07-13T06:50:50;16.38;;;3.05;;
15553;SDS011;7878;44.632;10.942;2023-07-13T06:53:17;16.55;;;3.05;;
15553;SDS011;7878;44.632;10.942;2023-07-13T06:55:43;7.60;;;2.10;;
15553;SDS011;7878;44.632;10.942;2023-07-13T06:58:10;10.70;;;2.28;;
15553;SDS011;7878;44.632;10.942;2023-07-13T07:00:36;9.02;;;2.70;;
15553;SDS011;7878;44.632;10.942;2023-07-13T07:03:01;6.55;;;2.08;;
15553;SDS011;7878;44.632;10.942;2023-07-13T07:05:27;6.95;;;2.55;;
15553;SDS011;7878;44.632;10.942;2023-07-13T07:07:54;9.18;;;2.65;;
15553;SDS011;7878;44.632;10.942;2023-07-13T07:10:20;10.48;;;3.10;;
15553;SDS011;7878;44.632;10.942;2023-07-13T07:12:47;12.90;;;2.30;;
15553;SDS011;7878;44.632;10.942;2023-07-13T07:15:13;7.18;;;2.45;;
15553;SDS011;7878;44.632;10.942;2023-07-13T07:17:39;7.63;;;2.63;;
15553;SDS011;7878;44.632;10.942;2023-07-13T07:20:04;6.55;;;2.85;;
15553;SDS011;7878;44.632;10.942;2023-07-13T07:22:31;8.07;;;2.55;;
15553;SDS011;7878;44.632;10.942;2023-07-13T07:24:57;15.40;;;3.22;;
15553;SDS011;7878;44.632;10.942;2023-07-13T07:27:23;10.85;;;2.67;;
15553;SDS011;7878;44.632;10.942;2023-07-13T07:29:49;16.95;;;3.63;;
15553;SDS011;7878;44.632;10.942;2023-07-13T07:32:15;15.40;;;3.00;;
15553;SDS011;7878;44.632;10.942;2023-07-13T07:34:41;20.13;;;3.10;;
15553;SDS011;7878;44.632;10.942;2023-07-13T07:37:09;8.02;;;2.50;;
15553;SDS011;7878;44.632;10.942;2023-07-13T07:39:37;23.88;;;3.78;;
15553;SDS011;7878;44.632;10.942;2023-07-13T07:42:03;8.48;;;2.85;;
15553;SDS011;7878;44.632;10.942;2023-07-13T07:44:30;12.05;;;3.42;;
15553;SDS011;7878;44.632;10.942;2023-07-13T07:46:56;10.35;;;3.67;;
15553;SDS011;7878;44.632;10.942;2023-07-13T07:49:22;7.85;;;3.00;;
15553;SDS011;7878;44.632;10.942;2023-07-13T07:51:47;19.33;;;3.88;;
15553;SDS011;7878;44.632;10.942;2023-07-13T07:54:13;13.77;;;4.43;;
15553;SDS011;7878;44.632;10.942;2023-07-13T07:56:39;14.90;;;3.60;;
15553;SDS011;7878;44.632;10.942;2023-07-13T07:59:05;15.00;;;4.45;;
15553;SDS011;7878;44.632;10.942;2023-07-13T08:01:31;17.88;;;3.67;;
15553;SDS011;7878;44.632;10.942;2023-07-13T08:03:57;8.52;;;3.53;;
15553;SDS011;7878;44.632;10.942;2023-07-13T08:06:22;10.57;;;4.35;;
15553;SDS011;7878;44.632;10.942;2023-07-13T08:08:48;6.80;;;3.78;;
15553;SDS011;7878;44.632;10.942;2023-07-13T08:11:17;9.40;;;4.63;;
15553;SDS011;7878;44.632;10.942;2023-07-13T08:13:43;20.85;;;4.82;;
15553;SDS011;7878;44.632;10.942;2023-07-13T08:16:08;31.23;;;5.40;;
15553;SDS011;7878;44.632;10.942;2023-07-13T08:18:34;11.88;;;4.30;;
15553;SDS011;7878;44.632;10.942;2023-07-13T08:21:06;25.15;;;4.88;;
15553;SDS011;7878;44.632;10.942;2023-07-13T08:23:33;13.05;;;4.03;;
15553;SDS011;7878;44.632;10.942;2023-07-13T08:25:59;13.65;;;4.18;;
15553;SDS011;7878;44.632;10.942;2023-07-13T08:28:29;9.85;;;4.40;;
15553;SDS011;7878;44.632;10.942;2023-07-13T08:30:59;9.95;;;4.13;;
15553;SDS011;7878;44.632;10.942;2023-07-13T08:33:26;12.30;;;4.10;;
15553;SDS011;7878;44.632;10.942;2023-07-13T08:35:51;8.07;;;3.97;;
15553;SDS011;7878;44.632;10.942;2023-07-13T08:38:17;9.70;;;3.70;;
15553;SDS011;7878;44.632;10.942;2023-07-13T08:40:43;13.63;;;3.40;;
15553;SDS011;7878;44.632;10.942;2023-07-13T08:43:20;19.02;;;3.88;;
15553;SDS011;7878;44.632;10.942;2023-07-13T08:48:54;11.48;;;3.67;;
15553;SDS011;7878;44.632;10.942;2023-07-13T08:51:29;17.10;;;4.00;;
15553;SDS011;7878;44.632;10.942;2023-07-13T08:54:03;19.02;;;4.50;;
15553;SDS011;7878;44.632;10.942;2023-07-13T08:56:36;16.63;;;3.80;;
15553;SDS011;7878;44.632;10.942;2023-07-13T08:59:11;13.43;;;3.85;;
15553;SDS011;7878;44.632;10.942;2023-07-13T09:04:47;10.10;;;4.22;;
15553;SDS011;7878;44.632;10.942;2023-07-13T09:07:30;10.13;;;4.00;;
15553;SDS011;7878;44.632;10.942;2023-07-13T09:10:15;14.77;;;3.92;;
15553;SDS011;7878;44.632;10.942;2023-07-13T09:15:41;15.50;;;4.03;;
15553;SDS011;7878;44.632;10.942;2023-07-13T09:23:14;16.95;;;3.67;;
15553;SDS011;7878;44.632;10.942;2023-07-13T09:25:43;8.27;;;3.97;;
15553;SDS011;7878;44.632;10.942;2023-07-13T09:28:19;11.63;;;3.85;;
15553;SDS011;7878;44.632;10.942;2023-07-13T09:31:01;14.25;;;3.65;;
15553;SDS011;7878;44.632;10.942;2023-07-13T09:33:31;8.07;;;3.85;;
15553;SDS011;7878;44.632;10.942;2023-07-13T09:35:57;10.27;;;4.45;;
15553;SDS011;7878;44.632;10.942;2023-07-13T09:38:24;14.40;;;4.70;;
15553;SDS011;7878;44.632;10.942;2023-07-13T09:44:00;15.23;;;4.13;;
15553;SDS011;7878;44.632;10.942;2023-07-13T09:46:31;14.75;;;4.65;;
15553;SDS011;7878;44.632;10.942;2023-07-13T09:48:57;33.58;;;5.47;;
15553;SDS011;7878;44.632;10.942;2023-07-13T09:51:22;9.07;;;4.00;;
15553;SDS011;7878;44.632;10.942;2023-07-13T09:53:48;9.05;;;4.55;;
15553;SDS011;7878;44.632;10.942;2023-07-13T09:56:22;14.85;;;4.75;;
15553;SDS011;7878;44.632;10.942;2023-07-13T09:58:51;16.98;;;4.93;;
15553;SDS011;7878;44.632;10.942;2023-07-13T10:01:30;24.98;;;4.65;;
15553;SDS011;7878;44.632;10.942;2023-07-13T10:03:58;16.35;;;4.63;;
15553;SDS011;7878;44.632;10.942;2023-07-13T10:06:24;10.77;;;4.35;;
15553;SDS011;7878;44.632;10.942;2023-07-13T10:08:51;18.00;;;4.85;;
15553;SDS011;7878;44.632;10.942;2023-07-13T10:11:19;10.57;;;4.25;;
15553;SDS011;7878;44.632;10.942;2023-07-13T10:13:53;15.20;;;4.22;;
15553;SDS011;7878;44.632;10.942;2023-07-13T10:16:21;9.63;;;4.32;;
15553;SDS011;7878;44.632;10.942;2023-07-13T10:18:51;16.63;;;5.15;;
15553;SDS011;7878;44.632;10.942;2023-07-13T10:21:22;10.70;;;4.75;;
15553;SDS011;7878;44.632;10.942;2023-07-13T10:23:54;12.32;;;4.90;;
15553;SDS011;7878;44.632;10.942;2023-07-13T10:26:27;15.45;;;5.45;;
15553;SDS011;7878;44.632;10.942;2023-07-13T10:28:57;11.02;;;5.20;;
15553;SDS011;7878;44.632;10.942;2023-07-13T10:31:29;10.13;;;4.85;;
15553;SDS011;7878;44.632;10.942;2023-07-13T10:33:56;11.15;;;5.05;;
15553;SDS011;7878;44.632;10.942;2023-07-13T10:36:38;13.00;;;5.07;;
15553;SDS011;7878;44.632;10.942;2023-07-13T10:39:10;10.93;;;4.95;;
15553;SDS011;7878;44.632;10.942;2023-07-13T10:41:52;14.02;;;5.30;;
15553;SDS011;7878;44.632;10.942;2023-07-13T10:54:27;13.23;;;5.30;;
15553;SDS011;7878;44.632;10.942;2023-07-13T10:57:07;8.82;;;5.60;;
15553;SDS011;7878;44.632;10.942;2023-07-13T11:02:28;16.45;;;5.88;;
15553;SDS011;7878;44.632;10.942;2023-07-13T11:04:54;12.38;;;5.50;;
15553;SDS011;7878;44.632;10.942;2023-07-13T11:07:23;21.75;;;5.45;;
15553;SDS011;7878;44.632;10.942;2023-07-13T11:09:56;11.43;;;5.95;;
15553;SDS011;7878;44.632;10.942;2023-07-13T11:22:46;14.95;;;6.03;;
15553;SDS011;7878;44.632;10.942;2023-07-13T11:25:33;15.73;;;6.50;;
15553;SDS011;7878;44.632;10.942;2023-07-13T11:28:22;10.20;;;5.65;;
15553;SDS011;7878;44.632;10.942;2023-07-13T11:30:49;12.70;;;5.72;;
15553;SDS011;7878;44.632;10.942;2023-07-13T11:36:28;11.85;;;7.32;;
15553;SDS011;7878;44.632;10.942;2023-07-13T11:38:39;12.63;;;7.93;;
15553;SDS011;7878;44.632;10.942;2023-07-13T11:41:06;15.23;;;5.72;;
15553;SDS011;7878;44.632;10.942;2023-07-13T11:43:40;12.23;;;6.35;;
15553;SDS011;7878;44.632;10.942;2023-07-13T11:46:15;12.75;;;8.35;;
15553;SDS011;7878;44.632;10.942;2023-07-13T11:48:49;12.85;;;6.70;;
15553;SDS011;7878;44.632;10.942;2023-07-13T11:51:20;13.30;;;7.53;;
15553;SDS011;7878;44.632;10.942;2023-07-13T11:53:49;12.52;;;8.05;;
15553;SDS011;7878;44.632;10.942;2023-07-13T11:56:16;11.77;;;7.07;;
15553;SDS011;7878;44.632;10.942;2023-07-13T11:58:42;16.80;;;6.90;;
15553;SDS011;7878;44.632;10.942;2023-07-13T12:01:16;13.77;;;6.97;;
15553;SDS011;7878;44.632;10.942;2023-07-13T12:03:48;12.77;;;8.43;;
15553;SDS011;7878;44.632;10.942;2023-07-13T12:08:55;12.10;;;8.13;;
15553;SDS011;7878;44.632;10.942;2023-07-13T12:11:22;12.90;;;7.00;;
15553;SDS011;7878;44.632;10.942;2023-07-13T12:13:47;14.05;;;6.75;;
15553;SDS011;7878;44.632;10.942;2023-07-13T12:16:21;13.52;;;6.85;;
15553;SDS011;7878;44.632;10.942;2023-07-13T12:18:54;17.13;;;7.75;;
15553;SDS011;7878;44.632;10.942;2023-07-13T12:21:22;11.13;;;5.80;;
15553;SDS011;7878;44.632;10.942;2023-07-13T12:23:55;15.65;;;6.97;;
15553;SDS011;7878;44.632;10.942;2023-07-13T12:26:21;13.13;;;7.05;;
15553;SDS011;7878;44.632;10.942;2023-07-13T12:28:48;17.55;;;7.82;;
15553;SDS011;7878;44.632;10.942;2023-07-13T12:32:03;12.82;;;7.45;;
15553;SDS011;7878;44.632;10.942;2023-07-13T12:34:13;15.02;;;6.80;;
15553;SDS011;7878;44.632;10.942;2023-07-13T12:37:02;20.38;;;7.47;;
15553;SDS011;7878;44.632;10.942;2023-07-13T12:44:50;12.85;;;6.40;;
15553;SDS011;7878;44.632;10.942;2023-07-13T12:47:19;14.48;;;7.65;;
15553;SDS011;7878;44.632;10.942;2023-07-13T12:49:50;15.70;;;6.97;;
15553;SDS011;7878;44.632;10.942;2023-07-13T12:52:23;14.02;;;7.15;;
15553;SDS011;7878;44.632;10.942;2023-07-13T12:54:56;13.10;;;6.20;;
15553;SDS011;7878;44.632;10.942;2023-07-13T12:57:24;11.70;;;6.35;;
15553;SDS011;7878;44.632;10.942;2023-07-13T12:59:54;17.52;;;7.10;;
15553;SDS011;7878;44.632;10.942;2023-07-13T13:02:28;11.32;;;6.95;;
15553;SDS011;7878;44.632;10.942;2023-07-13T13:04:56;12.55;;;7.65;;
15553;SDS011;7878;44.632;10.942;2023-07-13T13:07:23;14.32;;;6.60;;
15553;SDS011;7878;44.632;10.942;2023-07-13T13:09:49;12.32;;;7.07;;
15553;SDS011;7878;44.632;10.942;2023-07-13T13:12:15;14.48;;;6.85;;
15553;SDS011;7878;44.632;10.942;2023-07-13T13:14:42;16.20;;;6.55;;
15553;SDS011;7878;44.632;10.942;2023-07-13T13:17:24;10.98;;;6.50;;
15553;SDS011;7878;44.632;10.942;2023-07-13T13:19:54;13.40;;;6.53;;
15553;SDS011;7878;44.632;10.942;2023-07-13T13:22:20;9.95;;;5.72;;
15553;SDS011;7878;44.632;10.942;2023-07-13T13:24:46;17.23;;;6.60;;
15553;SDS011;7878;44.632;10.942;2023-07-13T13:27:15;15.77;;;6.70;;
15553;SDS011;7878;44.632;10.942;2023-07-13T13:29:43;16.50;;;6.25;;
15553;SDS011;7878;44.632;10.942;2023-07-13T13:32:13;16.90;;;7.10;;
15553;SDS011;7878;44.632;10.942;2023-07-13T13:34:40;11.65;;;6.30;;
15553;SDS011;7878;44.632;10.942;2023-07-13T13:37:23;14.98;;;6.95;;
15553;SDS011;7878;44.632;10.942;2023-07-13T13:39:51;14.07;;;6.00;;
15553;SDS011;7878;44.632;10.942;2023-07-13T13:42:18;11.30;;;6.43;;
15553;SDS011;7878;44.632;10.942;2023-07-13T13:44:46;15.40;;;6.85;;
15553;SDS011;7878;44.632;10.942;2023-07-13T13:49:57;11.35;;;5.82;;
15553;SDS011;7878;44.632;10.942;2023-07-13T13:52:23;16.63;;;6.40;;
15553;SDS011;7878;44.632;10.942;2023-07-13T13:54:50;10.60;;;7.35;;
15553;SDS011;7878;44.632;10.942;2023-07-13T13:57:21;17.42;;;7.68;;
15553;SDS011;7878;44.632;10.942;2023-07-13T13:59:48;21.20;;;7.60;;
15553;SDS011;7878;44.632;10.942;2023-07-13T14:02:25;18.20;;;8.07;;
15553;SDS011;7878;44.632;10.942;2023-07-13T14:04:56;12.93;;;7.25;;
15553;SDS011;7878;44.632;10.942;2023-07-13T14:07:25;11.68;;;6.78;;
15553;SDS011;7878;44.632;10.942;2023-07-13T14:09:55;10.65;;;6.28;;
15553;SDS011;7878;44.632;10.942;2023-07-13T14:12:22;17.83;;;8.05;;
15553;SDS011;7878;44.632;10.942;2023-07-13T14:14:51;12.98;;;6.32;;
15553;SDS011;7878;44.632;10.942;2023-07-13T14:17:26;12.45;;;8.05;;
15553;SDS011;7878;44.632;10.942;2023-07-13T14:19:53;12.70;;;7.60;;
15553;SDS011;7878;44.632;10.942;2023-07-13T14:22:25;12.60;;;6.65;;
15553;SDS011;7878;44.632;10.942;2023-07-13T14:24:52;13.75;;;6.60;;
15553;SDS011;7878;44.632;10.942;2023-07-13T14:27:19;10.73;;;6.40;;
15553;SDS011;7878;44.632;10.942;2023-07-13T14:29:45;10.85;;;5.93;;
15553;SDS011;7878;44.632;10.942;2023-07-13T14:32:11;15.63;;;5.93;;
15553;SDS011;7878;44.632;10.942;2023-07-13T14:34:37;14.70;;;6.28;;
15553;SDS011;7878;44.632;10.942;2023-07-13T14:37:03;11.18;;;6.00;;
15553;SDS011;7878;44.632;10.942;2023-07-13T14:39:30;10.35;;;6.35;;
15553;SDS011;7878;44.632;10.942;2023-07-13T14:41:56;13.95;;;6.43;;
15553;SDS011;7878;44.632;10.942;2023-07-13T14:44:26;15.40;;;5.90;;
15553;SDS011;7878;44.632;10.942;2023-07-13T14:46:54;12.23;;;6.20;;
15553;SDS011;7878;44.632;10.942;2023-07-13T14:49:27;15.52;;;6.32;;
15553;SDS011;7878;44.632;10.942;2023-07-13T14:51:55;11.60;;;5.95;;
15553;SDS011;7878;44.632;10.942;2023-07-13T14:54:23;12.13;;;6.75;;
15553;SDS011;7878;44.632;10.942;2023-07-13T14:56:49;17.45;;;6.82;;
15553;SDS011;7878;44.632;10.942;2023-07-13T14:59:15;12.07;;;6.20;;
15553;SDS011;7878;44.632;10.942;2023-07-13T15:01:44;13.52;;;6.72;;
15553;SDS011;7878;44.632;10.942;2023-07-13T15:04:10;10.70;;;6.35;;
15553;SDS011;7878;44.632;10.942;2023-07-13T15:09:40;10.43;;;6.40;;
15553;SDS011;7878;44.632;10.942;2023-07-13T15:12:06;13.38;;;7.97;;
15553;SDS011;7878;44.632;10.942;2023-07-13T15:14:32;12.43;;;6.20;;
15553;SDS011;7878;44.632;10.942;2023-07-13T15:16:58;10.57;;;6.65;;
15553;SDS011;7878;44.632;10.942;2023-07-13T15:19:24;13.27;;;6.13;;
15553;SDS011;7878;44.632;10.942;2023-07-13T15:21:51;14.55;;;7.15;;
15553;SDS011;7878;44.632;10.942;2023-07-13T15:24:19;12.40;;;6.47;;
15553;SDS011;7878;44.632;10.942;2023-07-13T15:26:45;16.58;;;7.35;;
15553;SDS011;7878;44.632;10.942;2023-07-13T15:29:14;12.20;;;6.72;;
15553;SDS011;7878;44.632;10.942;2023-07-13T15:31:43;18.20;;;6.88;;
15553;SDS011;7878;44.632;10.942;2023-07-13T15:34:13;11.98;;;7.40;;
15553;SDS011;7878;44.632;10.942;2023-07-13T15:36:45;15.73;;;7.18;;
15553;SDS011;7878;44.632;10.942;2023-07-13T15:39:15;15.32;;;7.72;;
15553;SDS011;7878;44.632;10.942;2023-07-13T15:41:41;15.80;;;6.70;;